KMTN/MTN METAR and TAF weather

Enter ICAO airport designator
Station Type Date Time Source
KMTN METAR 2020/04/10 17:54 UTC NOAA

KMTN 101754Z 26021G31KT 10SM BKN060 BKN075 09/M03 A2966


Station Type Date Time Source
KMTN Decoded METAR 2020/04/10 17:54 UTC NOAA

Baltimore / Martin, MD, United States (KMTN) 39-20N 076-25W
Apr 10, 2020 - 01:54 PM EDT / 2020.04.10 1754 UTC
Wind: from the W (260 degrees) at 24 MPH (21 KT) gusting to 36 MPH (31 KT):0
Visibility: 10 mile(s):0
Sky conditions: mostly cloudy
Temperature: 48 F (9 C)
Dew Point: 26 F (-3 C)
Relative Humidity: 42%
Pressure (altimeter): 29.66 in. Hg (1004 hPa)
ob: KMTN 101754Z 26021G31KT 10SM BKN060 BKN075 09/M03 A2966
cycle: 18

Station Type Date Time Source
KMTN TAF 2020/04/10 18:27 UTC NOAA

TAF KMTN 101725Z 1018/1118 28023G39KT P6SM BKN050
FM102300 29018G29KT P6SM SKC
FM110200 30013G19KT P6SM SKC
FM110500 29009KT P6SM SKC
FM111300 28010G17KT P6SM FEW150
FM111600 28012G19KT P6SM FEW045

Example: see airport list